Latest Weather Observations for Tarcoola

IDS60801

Issued at 2:35 pm CST Friday 25 July 2014 (issued every 30 minutes, with the page automatically refreshed every 10 minutes)

About weather observations | Map of weather stations | Latest weather observations for SA | Other Formats
Station Details ID: 016098 Name: TARCOOLA AERO Lat: -30.71 Lon: 134.58 Height: 123.0 m
Data from the previous 72 hours. | See also: Recent months at Tarcoola
Date/Time
CST
Temp
°C
App
Temp
°C
Dew
Point
Rel
Hum
%
Delta-T
°C
Wind Press
QNH
hPa
Press
MSL
hPa
Rain
since 9 am
mm
Dir
 
Spd
km/h
Gust
km/h
Spd
kts
Gust
kts
25/02:30pm 18.0 13.2 4.6 41 6.4 W 19 22 10 12 1021.8 1021.9 0.0
25/02:00pm 17.1 13.1 4.8 44 5.9 NW 15 22 8 12 1021.9 - 0.0
25/01:30pm 16.5 12.6 5.2 47 5.4 WNW 15 22 8 12 1022.0 1022.1 0.0
25/01:00pm 17.0 13.5 5.6 47 5.5 WNW 13 22 7 12 1022.2 - 0.0
25/12:30pm 16.8 12.6 5.7 48 5.4 NW 17 26 9 14 1022.5 1022.6 0.0
25/12:00pm 16.5 13.3 6.9 53 4.8 NW 13 20 7 11 1022.8 1022.9 0.0
25/11:30am 15.7 12.2 7.2 57 4.2 WNW 15 20 8 11 1023.1 1023.2 0.0
25/11:00am 15.2 12.3 8.0 62 3.6 WNW 13 19 7 10 1023.3 - 0.0
25/10:30am 14.4 11.0 7.7 64 3.3 WNW 15 20 8 11 1023.4 1023.5 0.0
25/10:00am 13.8 9.7 8.0 68 2.9 W 19 24 10 13 1023.4 - 0.0
25/09:30am 12.8 9.1 8.1 73 2.3 WNW 17 22 9 12 1023.0 1023.1 0.0
25/09:00am 11.5 8.2 8.2 80 1.6 NW 15 20 8 11 1022.5 1022.6 0.0
25/08:30am 10.3 7.0 7.9 85 1.2 NNW 15 19 8 10 1022.0 1022.1 0.0
25/08:00am 8.7 5.6 7.3 91 0.7 NNW 13 15 7 8 1021.6 - 0.0
25/07:30am 7.6 4.6 6.2 91 0.6 NW 11 15 6 8 1021.3 1021.4 0.0
25/07:00am 7.6 6.7 6.1 90 0.7 CALM 0 0 0 0 1020.8 - 0.0
25/06:30am 7.0 5.2 5.2 88 0.8 NNW 4 9 2 5 1020.3 1020.4 0.0
25/06:00am 8.3 7.2 6.8 90 0.7 WNW 2 9 1 5 1020.1 1020.2 0.0
25/05:30am 8.5 6.0 6.6 88 0.9 NW 9 11 5 6 1019.6 1019.7 0.0
25/05:00am 8.9 8.2 7.0 88 0.9 CALM 0 6 0 3 1019.1 - 0.0
25/04:30am 9.7 9.1 7.3 85 1.1 CALM 0 0 0 0 1019.1 1019.2 0.0
25/04:00am 9.9 7.9 7.3 84 1.2 WNW 7 9 4 5 1019.1 - 0.0
25/03:30am 9.5 7.7 7.1 85 1.1 NW 6 9 3 5 1018.9 1019.0 0.0
25/03:00am 9.8 7.8 7.2 84 1.2 WNW 7 7 4 4 1018.7 1018.8 0.0
25/02:30am 10.4 8.1 7.5 82 1.4 W 9 13 5 7 1018.7 1018.8 0.0
25/02:00am 10.8 6.7 7.7 81 1.5 W 19 26 10 14 1018.7 - 0.0
25/01:30am 11.2 6.8 6.7 74 2.1 WNW 19 24 10 13 1018.5 1018.6 0.0
25/01:00am 10.6 7.0 6.7 77 1.8 WNW 15 20 8 11 1018.3 - 0.0
25/12:30am 9.5 7.0 6.6 82 1.4 WSW 9 17 5 9 1018.4 1018.5 0.0
25/12:00am 9.1 6.7 7.2 88 0.9 NNW 9 13 5 7 1018.3 1018.4 0.0
 
Date/Time
CST
Temp
°C
App
Temp
°C
Dew
Point
Rel
Hum
%
Delta-T
°C
Wind Press
QNH
hPa
Press
MSL
hPa
Rain
since 9 am
mm
Dir
 
Spd
km/h
Gust
km/h
Spd
kts
Gust
kts
24/11:30pm 7.6 5.3 5.9 89 0.8 NE 7 7 4 4 1018.3 1018.4 0.0
24/11:00pm 7.7 5.5 6.2 90 0.7 NE 7 7 4 4 1018.2 - 0.0
24/10:30pm 7.1 5.0 5.6 90 0.7 NE 6 9 3 5 1018.1 1018.2 0.0
24/10:00pm 7.1 4.4 5.4 89 0.8 NE 9 11 5 6 1018.1 - 0.0
24/09:30pm 7.6 5.0 5.9 89 0.8 NE 9 9 5 5 1017.9 1018.0 0.0
24/09:00pm 7.9 7.0 6.0 88 0.9 CALM 0 0 0 0 1017.6 1017.7 0.0
24/08:30pm 8.5 6.5 6.3 86 1.0 WSW 6 7 3 4 1017.3 1017.4 0.0
24/08:00pm 9.1 7.1 6.4 83 1.3 W 6 7 3 4 1017.0 - 0.0
24/07:30pm 10.8 9.0 7.1 78 1.8 W 6 7 3 4 1016.7 1016.8 0.0
24/07:00pm 11.5 9.1 6.8 73 2.2 W 9 11 5 6 1016.4 - 0.0
24/06:30pm 13.0 9.8 7.0 67 2.9 W 13 15 7 8 1016.1 1016.2 0.0
24/06:00pm 13.9 11.1 7.0 63 3.4 W 11 15 6 8 1015.6 1015.7 0.0
24/05:30pm 15.4 11.0 7.2 58 4.1 W 20 28 11 15 1015.3 1015.4 0.0
24/05:00pm 15.6 12.2 7.6 59 4.0 W 15 20 8 11 1015.1 - 0.0
24/04:30pm 16.1 11.9 7.3 56 4.4 W 19 24 10 13 1014.9 1015.0 0.0
24/04:00pm 16.1 13.1 7.8 58 4.2 W 13 19 7 10 1014.9 - 0.0
24/03:30pm 16.2 12.4 7.7 57 4.3 W 17 24 9 13 1015.0 1015.1 0.0
24/03:00pm 16.2 11.9 7.7 57 4.3 W 20 26 11 14 1015.1 1015.2 0.0
24/02:30pm 15.8 11.7 8.8 63 3.6 W 20 28 11 15 1015.0 1015.1 0.0
24/02:00pm 15.3 11.2 8.5 64 3.5 WNW 20 30 11 16 1015.3 - 0.0
24/01:30pm 15.1 10.6 8.6 65 3.3 W 22 28 12 15 1015.5 1015.6 0.0
24/01:00pm 15.0 11.5 8.7 66 3.2 W 17 24 9 13 1015.8 - 0.0
24/12:30pm 14.6 11.0 8.5 67 3.1 W 17 26 9 14 1016.3 1016.4 0.0
24/12:00pm 14.3 10.8 8.7 69 2.8 WNW 17 22 9 12 1016.5 1016.6 0.0
24/11:30am 13.7 9.5 8.1 69 2.8 W 20 28 11 15 1016.8 1016.9 0.0
24/11:00am 13.6 9.3 8.0 69 2.8 WNW 20 30 11 16 1017.0 - 0.0
24/10:30am 12.7 8.2 8.4 75 2.1 W 22 33 12 18 1017.2 1017.3 0.0
24/10:00am 12.4 8.2 8.3 76 2.0 W 20 28 11 15 1016.7 - 0.0
24/09:30am 11.9 7.3 8.2 78 1.8 W 22 32 12 17 1016.4 1016.5 0.0
24/09:00am 11.6 8.0 8.5 81 1.5 W 17 24 9 13 1016.0 1016.1 0.0
24/08:30am 11.3 7.7 8.3 82 1.5 W 17 24 9 13 1015.5 1015.6 0.0
24/08:00am 11.0 7.0 8.2 83 1.4 W 19 30 10 16 1015.1 - 0.0
24/07:30am 10.5 7.2 8.1 85 1.2 W 15 20 8 11 1014.9 1015.0 0.0
24/07:00am 10.3 7.0 8.1 86 1.1 WNW 15 20 8 11 1014.7 - 0.0
24/06:30am 9.7 6.3 7.8 88 0.9 WNW 15 19 8 10 1014.3 1014.3 0.0
24/06:00am 9.9 7.3 7.7 86 1.1 WNW 11 15 6 8 1014.2 1014.2 0.0
24/05:30am 10.6 6.5 8.0 84 1.3 WNW 19 24 10 13 1014.5 1014.6 0.0
24/05:00am 10.7 6.0 7.8 82 1.4 W 22 30 12 16 1014.2 - 0.0
24/04:30am 11.1 5.3 8.0 81 1.5 WNW 28 39 15 21 1014.0 1014.0 0.0
24/04:00am 11.7 5.6 8.2 79 1.7 W 30 43 16 23 1014.2 - 0.0
24/03:30am 11.5 5.0 8.2 80 1.6 WNW 32 41 17 22 1014.0 1014.0 0.0
24/03:00am 11.6 6.3 8.3 80 1.6 WNW 26 33 14 18 1013.8 1013.8 0.0
24/02:30am 11.6 5.9 8.5 81 1.5 WNW 28 35 15 19 1013.6 1013.6 0.0
24/02:00am 11.5 6.6 8.5 82 1.5 WNW 24 32 13 17 1013.3 - 0.0
24/01:30am 11.4 6.1 8.4 82 1.5 WNW 26 35 14 19 1013.0 1013.0 0.0
24/01:00am 11.5 6.2 8.5 82 1.5 WNW 26 37 14 20 1012.8 - 0.0
24/12:30am 11.5 7.4 8.5 82 1.5 WNW 20 30 11 16 1013.1 1013.1 0.0
24/12:00am 11.4 6.9 8.4 82 1.5 WNW 22 33 12 18 1013.1 1013.1 0.0
 
Date/Time
CST
Temp
°C
App
Temp
°C
Dew
Point
Rel
Hum
%
Delta-T
°C
Wind Press
QNH
hPa
Press
MSL
hPa
Rain
since 9 am
mm
Dir
 
Spd
km/h
Gust
km/h
Spd
kts
Gust
kts
23/11:30pm 11.7 6.8 8.6 81 1.5 WNW 24 37 13 20 1013.2 1013.2 0.0
23/11:00pm 12.0 6.3 8.5 79 1.7 WNW 28 39 15 21 1013.4 - 0.0
23/10:30pm 12.2 5.7 8.3 77 1.9 WNW 32 44 17 24 1013.4 1013.4 0.0
23/10:02pm 12.4 6.4 8.5 77 1.9 NW 30 48 16 26 1013.3 - 0.0
23/10:00pm 12.4 6.0 8.5 77 1.9 WNW 32 44 17 24 1013.3 - 0.0
23/09:30pm 12.8 6.8 8.5 75 2.2 WNW 30 41 16 22 1013.2 1013.2 0.0
23/09:00pm 13.0 6.4 8.5 74 2.3 WNW 33 44 18 24 1013.2 1013.2 0.0
23/08:37pm 13.4 6.3 8.0 70 2.7 WNW 35 54 19 29 1013.0 - 0.0
23/08:30pm 13.7 6.9 7.9 68 2.9 WNW 33 50 18 27 1013.0 1013.0 0.0
23/08:23pm 13.9 7.3 7.7 66 3.1 WNW 32 50 17 27 1012.9 - 0.0
23/08:00pm 13.7 8.3 7.9 68 2.9 WNW 26 33 14 18 1012.7 - 0.0
23/07:39pm 14.1 7.3 7.6 65 3.2 WNW 33 56 18 30 1012.4 - 0.0
23/07:30pm 14.1 7.4 7.2 63 3.4 WNW 32 43 17 23 1012.4 1012.4 0.0
23/07:01pm 14.4 8.1 7.2 62 3.5 WNW 30 48 16 26 1012.0 - 0.0
23/07:00pm 14.4 8.1 7.2 62 3.5 WNW 30 41 16 22 1012.0 - 0.0
23/06:30pm 14.3 8.3 6.9 61 3.6 NW 28 39 15 21 1011.7 1011.8 0.0
23/06:00pm 14.5 7.4 6.6 59 3.9 NW 33 48 18 26 1011.3 1011.4 0.0
23/05:30pm 14.9 6.6 6.2 56 4.2 NW 39 56 21 30 1010.9 1011.0 0.0
23/05:00pm 15.7 7.6 5.3 50 5.0 NW 37 48 20 26 1010.5 - 0.0
23/04:42pm 15.9 7.0 4.9 48 5.2 NW 41 59 22 32 1010.4 - 0.0
23/04:30pm 16.3 7.0 5.0 47 5.4 NW 43 56 23 30 1010.3 1010.4 0.0
23/04:00pm 16.7 7.3 4.7 45 5.7 NW 43 56 23 30 1009.8 - 0.0
23/03:37pm 17.3 8.4 5.3 45 5.8 NW 41 59 22 32 1009.7 - 0.0
23/03:30pm 17.4 8.0 5.4 45 5.8 NW 44 59 24 32 1009.7 1009.8 0.0
23/03:00pm 17.5 8.0 4.8 43 6.1 NW 44 59 24 32 1009.5 1009.6 0.0
23/02:49pm 17.5 9.1 5.4 45 5.9 NW 39 57 21 31 1009.4 - 0.0
23/02:30pm 17.9 8.5 5.5 44 6.1 NW 44 57 24 31 1009.4 1009.5 0.0
23/02:02pm 17.8 8.6 5.4 44 6.0 NW 43 61 23 33 1009.6 - 0.0
23/02:00pm 17.9 9.2 5.8 45 5.9 NW 41 57 22 31 1009.7 - 0.0
23/01:55pm 18.1 10.0 6.9 48 5.6 NW 39 57 21 31 1009.8 - 0.0
23/01:30pm 17.9 8.6 5.8 45 6.0 NW 44 61 24 33 1010.1 1010.2 0.0
23/01:10pm 17.5 8.8 7.5 52 5.1 NW 43 61 23 33 1010.3 - 0.0
23/01:00pm 17.9 10.1 8.2 53 5.0 NW 39 56 21 30 1010.4 - 0.0
23/12:47pm 17.4 10.3 8.0 54 4.8 NW 35 54 19 29 1010.5 - 0.0
23/12:30pm 18.5 10.3 8.2 51 5.3 NNW 41 54 22 29 1010.7 1010.8 0.0
23/12:14pm 18.8 12.2 8.7 52 5.3 NNW 33 52 18 28 1011.1 - 0.0
23/12:00pm 17.7 11.9 9.3 58 4.4 NNW 30 39 16 21 1011.3 1011.4 0.0
23/11:30am 17.1 11.8 9.8 62 3.9 NNW 28 41 15 22 1011.7 1011.8 0.0
23/11:00am 17.4 12.4 11.0 66 3.5 NNW 28 35 15 19 1012.3 - 0.0
23/10:30am 16.5 10.4 11.9 74 2.5 NNW 35 46 19 25 1012.9 1012.9 0.0
23/10:00am 15.6 10.7 11.4 76 2.3 N 28 39 15 21 1012.9 - 0.0
23/09:30am 14.7 10.0 10.5 76 2.2 N 26 35 14 19 1013.3 1013.3 0.0
23/09:00am 13.3 8.2 9.2 76 2.1 N 26 33 14 18 1013.3 1013.3 8.0
23/08:30am 12.0 8.7 9.4 84 1.3 NNE 17 20 9 11 1013.3 1013.3 8.0
23/08:00am 11.6 10.1 9.2 85 1.2 N 7 11 4 6 1013.4 - 8.0
23/07:30am 11.0 7.6 9.1 88 1.0 NE 17 20 9 11 1013.1 1013.1 7.8
23/07:00am 10.7 7.3 9.1 90 0.8 NE 17 20 9 11 1013.2 - 7.8
23/06:30am 10.6 8.0 9.2 91 0.7 NNE 13 17 7 9 1013.7 1013.7 7.6
23/06:00am 10.6 8.3 9.0 90 0.8 NE 11 13 6 7 1014.0 1014.0 7.4
23/05:30am 10.6 8.3 9.0 90 0.8 E 11 15 6 8 1014.1 1014.1 7.4
23/05:00am 10.3 8.7 8.9 91 0.7 NE 7 9 4 5 1014.7 - 7.2
23/04:30am 10.2 7.8 8.6 90 0.8 NE 11 15 6 8 1014.2 1014.2 6.4
23/04:00am 10.1 6.9 8.5 90 0.8 NE 15 20 8 11 1014.4 - 5.6
23/03:30am 10.2 8.7 8.6 90 0.8 S 6 15 3 8 1014.7 1014.8 5.0
23/03:00am 10.5 8.4 8.1 85 1.2 NNE 9 13 5 7 1015.3 1015.4 2.0
23/02:30am 10.7 7.6 7.4 80 1.6 ENE 13 19 7 10 1014.7 1014.8 1.8
23/02:00am 11.1 7.3 7.6 79 1.7 E 17 20 9 11 1014.9 - 1.4
23/01:30am 11.2 8.7 8.4 83 1.4 E 11 15 6 8 1015.8 1015.9 1.2
23/01:00am 11.6 10.0 7.9 78 1.8 N 6 7 3 4 1017.0 - 0.8
23/12:30am 13.1 10.2 4.8 57 3.8 NNE 9 17 5 9 1017.6 1017.7 0.2
23/12:00am 15.2 11.5 0.2 36 6.4 ENE 9 15 5 8 1017.5 1017.6 0.0
 
Date/Time
CST
Temp
°C
App
Temp
°C
Dew
Point
Rel
Hum
%
Delta-T
°C
Wind Press
QNH
hPa
Press
MSL
hPa
Rain
since 9 am
mm
Dir
 
Spd
km/h
Gust
km/h
Spd
kts
Gust
kts
22/11:30pm 16.3 10.8 -2.2 28 7.6 ENE 17 19 9 10 1017.5 1017.6 0.0
22/11:00pm 16.6 11.0 -3.0 26 7.9 ENE 17 20 9 11 1017.9 - 0.0
22/10:30pm 16.4 11.7 -2.1 28 7.6 ENE 13 20 7 11 1017.8 1017.9 0.0
22/10:00pm 16.0 12.1 -1.5 30 7.3 ENE 9 13 5 7 1018.0 - 0.0
22/09:30pm 16.6 11.8 -2.5 27 7.8 NNE 13 20 7 11 1018.2 1018.3 0.0
22/09:00pm 16.6 11.9 -1.5 29 7.5 ESE 13 19 7 10 1017.8 1017.9 0.0
22/08:30pm 15.7 12.8 -1.4 31 7.1 NNE 4 9 2 5 1018.6 1018.7 0.0
22/08:00pm 16.9 12.0 -3.2 25 8.1 N 13 17 7 9 1018.9 - 0.0
22/07:30pm 15.9 11.4 -3.1 27 7.6 NNE 11 13 6 7 1018.6 1018.7 0.0
22/07:00pm 16.5 12.4 -3.0 26 7.9 NNE 9 11 5 6 1018.4 - 0.0
22/06:30pm 17.2 13.7 -3.0 25 8.2 ESE 6 6 3 3 1017.8 1017.9 0.0
22/06:00pm 18.6 14.1 -2.9 23 8.9 NE 11 13 6 7 1017.9 1018.0 0.0
22/05:30pm 19.3 14.4 -3.5 21 9.4 NE 13 17 7 9 1017.9 1018.0 0.0
22/05:00pm 20.2 14.2 -3.4 20 9.8 NE 19 24 10 13 1017.5 - 0.0
22/04:30pm 20.9 14.8 -3.6 19 10.2 NNE 19 24 10 13 1017.4 1017.5 0.0
22/04:00pm 21.2 15.6 -3.3 19 10.3 NE 17 22 9 12 1017.3 - 0.0
22/03:30pm 21.5 16.6 -3.1 19 10.4 NE 13 20 7 11 1017.2 1017.3 0.0
22/03:00pm 21.6 16.0 -3.0 19 10.4 NE 17 24 9 13 1017.4 1017.5 0.0

Other Formats:

Comma delimited format used in spreadsheet applications
http://www.bom.gov.au/fwo/IDS60801/IDS60801.94655.axf

JavaScript Object Notation format (JSON) in row-major order
http://www.bom.gov.au/fwo/IDS60801/IDS60801.94655.json